sensor_id;sensor_type;location;lat;lon;timestamp;P1;durP1;ratioP1;P2;durP2;ratioP2
7707;SDS011;3896;48.758;8.888;2022-10-31T00:02:06;2.53;;;2.27;;
7707;SDS011;3896;48.758;8.888;2022-10-31T00:04:31;2.13;;;1.93;;
7707;SDS011;3896;48.758;8.888;2022-10-31T00:06:57;3.53;;;2.27;;
7707;SDS011;3896;48.758;8.888;2022-10-31T00:09:22;3.37;;;2.33;;
7707;SDS011;3896;48.758;8.888;2022-10-31T00:11:48;2.77;;;2.30;;
7707;SDS011;3896;48.758;8.888;2022-10-31T00:14:14;3.30;;;2.60;;
7707;SDS011;3896;48.758;8.888;2022-10-31T00:16:39;3.30;;;2.47;;
7707;SDS011;3896;48.758;8.888;2022-10-31T00:19:08;4.07;;;2.00;;
7707;SDS011;3896;48.758;8.888;2022-10-31T00:21:34;4.20;;;2.40;;
7707;SDS011;3896;48.758;8.888;2022-10-31T00:24:00;4.23;;;1.77;;
7707;SDS011;3896;48.758;8.888;2022-10-31T00:26:26;7.43;;;2.20;;
7707;SDS011;3896;48.758;8.888;2022-10-31T00:28:53;2.87;;;2.17;;
7707;SDS011;3896;48.758;8.888;2022-10-31T00:31:19;3.20;;;2.20;;
7707;SDS011;3896;48.758;8.888;2022-10-31T00:33:45;3.50;;;1.73;;
7707;SDS011;3896;48.758;8.888;2022-10-31T00:36:12;6.10;;;2.30;;
7707;SDS011;3896;48.758;8.888;2022-10-31T00:38:40;3.83;;;2.27;;
7707;SDS011;3896;48.758;8.888;2022-10-31T00:41:06;4.13;;;2.17;;
7707;SDS011;3896;48.758;8.888;2022-10-31T00:43:32;2.87;;;2.00;;
7707;SDS011;3896;48.758;8.888;2022-10-31T00:45:58;4.83;;;2.17;;
7707;SDS011;3896;48.758;8.888;2022-10-31T00:48:23;3.00;;;2.33;;
7707;SDS011;3896;48.758;8.888;2022-10-31T00:50:49;2.43;;;2.10;;
7707;SDS011;3896;48.758;8.888;2022-10-31T00:53:14;5.33;;;2.33;;
7707;SDS011;3896;48.758;8.888;2022-10-31T00:55:40;3.10;;;1.90;;
7707;SDS011;3896;48.758;8.888;2022-10-31T00:58:05;5.20;;;2.17;;
7707;SDS011;3896;48.758;8.888;2022-10-31T01:00:31;2.70;;;2.17;;
7707;SDS011;3896;48.758;8.888;2022-10-31T01:02:57;2.50;;;2.17;;
7707;SDS011;3896;48.758;8.888;2022-10-31T01:05:22;5.07;;;2.33;;
7707;SDS011;3896;48.758;8.888;2022-10-31T01:07:48;6.93;;;2.43;;
7707;SDS011;3896;48.758;8.888;2022-10-31T01:10:14;5.80;;;2.50;;
7707;SDS011;3896;48.758;8.888;2022-10-31T01:12:40;3.70;;;2.47;;
7707;SDS011;3896;48.758;8.888;2022-10-31T01:15:08;3.53;;;2.17;;
7707;SDS011;3896;48.758;8.888;2022-10-31T01:17:34;7.27;;;2.30;;
7707;SDS011;3896;48.758;8.888;2022-10-31T01:20:00;3.20;;;2.20;;
7707;SDS011;3896;48.758;8.888;2022-10-31T01:22:26;2.43;;;2.10;;
7707;SDS011;3896;48.758;8.888;2022-10-31T01:24:51;4.67;;;2.40;;
7707;SDS011;3896;48.758;8.888;2022-10-31T01:27:17;4.53;;;2.83;;
7707;SDS011;3896;48.758;8.888;2022-10-31T01:29:42;6.83;;;2.40;;
7707;SDS011;3896;48.758;8.888;2022-10-31T01:32:08;2.73;;;2.33;;
7707;SDS011;3896;48.758;8.888;2022-10-31T01:34:33;4.43;;;2.10;;
7707;SDS011;3896;48.758;8.888;2022-10-31T01:36:59;2.67;;;2.40;;
7707;SDS011;3896;48.758;8.888;2022-10-31T01:39:25;4.20;;;2.23;;
7707;SDS011;3896;48.758;8.888;2022-10-31T01:41:51;4.23;;;2.23;;
7707;SDS011;3896;48.758;8.888;2022-10-31T01:46:59;2.53;;;2.33;;
7707;SDS011;3896;48.758;8.888;2022-10-31T01:49:34;3.43;;;2.13;;
7707;SDS011;3896;48.758;8.888;2022-10-31T01:52:09;3.80;;;2.00;;
7707;SDS011;3896;48.758;8.888;2022-10-31T01:54:43;3.97;;;2.27;;
7707;SDS011;3896;48.758;8.888;2022-10-31T01:57:15;2.87;;;1.90;;
7707;SDS011;3896;48.758;8.888;2022-10-31T01:59:44;3.37;;;2.07;;
7707;SDS011;3896;48.758;8.888;2022-10-31T02:02:12;2.93;;;2.07;;
7707;SDS011;3896;48.758;8.888;2022-10-31T02:04:39;4.27;;;2.23;;
7707;SDS011;3896;48.758;8.888;2022-10-31T02:07:13;4.77;;;2.40;;
7707;SDS011;3896;48.758;8.888;2022-10-31T02:09:43;3.13;;;2.43;;
7707;SDS011;3896;48.758;8.888;2022-10-31T02:12:11;4.53;;;2.07;;
7707;SDS011;3896;48.758;8.888;2022-10-31T02:14:37;2.03;;;1.93;;
7707;SDS011;3896;48.758;8.888;2022-10-31T02:17:03;3.40;;;1.93;;
7707;SDS011;3896;48.758;8.888;2022-10-31T02:19:31;3.60;;;2.10;;
7707;SDS011;3896;48.758;8.888;2022-10-31T02:22:11;6.90;;;3.10;;
7707;SDS011;3896;48.758;8.888;2022-10-31T02:27:15;5.40;;;2.30;;
7707;SDS011;3896;48.758;8.888;2022-10-31T02:30:11;5.63;;;3.30;;
7707;SDS011;3896;48.758;8.888;2022-10-31T02:38:12;3.90;;;2.30;;
7707;SDS011;3896;48.758;8.888;2022-10-31T02:46:19;2.63;;;2.10;;
7707;SDS011;3896;48.758;8.888;2022-10-31T02:48:57;2.50;;;1.97;;
7707;SDS011;3896;48.758;8.888;2022-10-31T02:51:29;4.60;;;2.40;;
7707;SDS011;3896;48.758;8.888;2022-10-31T02:53:54;5.83;;;1.83;;
7707;SDS011;3896;48.758;8.888;2022-10-31T02:56:20;2.57;;;2.37;;
7707;SDS011;3896;48.758;8.888;2022-10-31T03:13:09;1.97;;;1.73;;
7707;SDS011;3896;48.758;8.888;2022-10-31T03:15:41;5.10;;;1.97;;
7707;SDS011;3896;48.758;8.888;2022-10-31T03:18:12;2.43;;;2.20;;
7707;SDS011;3896;48.758;8.888;2022-10-31T03:23:40;4.40;;;2.50;;
7707;SDS011;3896;48.758;8.888;2022-10-31T03:26:08;2.13;;;1.90;;
7707;SDS011;3896;48.758;8.888;2022-10-31T03:28:38;2.77;;;2.23;;
7707;SDS011;3896;48.758;8.888;2022-10-31T03:31:15;2.80;;;2.50;;
7707;SDS011;3896;48.758;8.888;2022-10-31T03:33:43;3.20;;;1.90;;
7707;SDS011;3896;48.758;8.888;2022-10-31T03:36:11;3.07;;;2.80;;
7707;SDS011;3896;48.758;8.888;2022-10-31T03:38:39;6.43;;;2.10;;
7707;SDS011;3896;48.758;8.888;2022-10-31T03:41:09;4.07;;;2.00;;
7707;SDS011;3896;48.758;8.888;2022-10-31T03:43:40;5.27;;;2.10;;
7707;SDS011;3896;48.758;8.888;2022-10-31T03:46:10;2.47;;;2.13;;
7707;SDS011;3896;48.758;8.888;2022-10-31T03:48:36;2.33;;;2.13;;
7707;SDS011;3896;48.758;8.888;2022-10-31T03:51:07;2.73;;;2.07;;
7707;SDS011;3896;48.758;8.888;2022-10-31T03:56:42;3.00;;;2.23;;
7707;SDS011;3896;48.758;8.888;2022-10-31T03:59:29;2.40;;;1.90;;
7707;SDS011;3896;48.758;8.888;2022-10-31T04:02:00;3.33;;;2.20;;
7707;SDS011;3896;48.758;8.888;2022-10-31T04:04:31;1.80;;;1.70;;
7707;SDS011;3896;48.758;8.888;2022-10-31T04:06:59;2.03;;;1.90;;
7707;SDS011;3896;48.758;8.888;2022-10-31T04:09:26;5.80;;;2.60;;
7707;SDS011;3896;48.758;8.888;2022-10-31T04:11:55;2.00;;;1.87;;
7707;SDS011;3896;48.758;8.888;2022-10-31T04:14:23;5.20;;;2.50;;
7707;SDS011;3896;48.758;8.888;2022-10-31T04:16:51;2.53;;;2.10;;
7707;SDS011;3896;48.758;8.888;2022-10-31T04:19:17;4.90;;;2.83;;
7707;SDS011;3896;48.758;8.888;2022-10-31T04:21:42;2.70;;;2.23;;
7707;SDS011;3896;48.758;8.888;2022-10-31T04:24:10;4.90;;;1.93;;
7707;SDS011;3896;48.758;8.888;2022-10-31T04:26:36;3.73;;;2.17;;
7707;SDS011;3896;48.758;8.888;2022-10-31T04:29:02;2.80;;;2.07;;
7707;SDS011;3896;48.758;8.888;2022-10-31T04:31:28;3.10;;;2.43;;
7707;SDS011;3896;48.758;8.888;2022-10-31T04:33:54;4.60;;;2.43;;
7707;SDS011;3896;48.758;8.888;2022-10-31T04:36:19;3.27;;;2.40;;
7707;SDS011;3896;48.758;8.888;2022-10-31T04:38:45;4.20;;;2.00;;
7707;SDS011;3896;48.758;8.888;2022-10-31T04:41:11;2.93;;;2.00;;
7707;SDS011;3896;48.758;8.888;2022-10-31T04:43:36;3.83;;;2.40;;
7707;SDS011;3896;48.758;8.888;2022-10-31T04:46:02;3.27;;;2.00;;
7707;SDS011;3896;48.758;8.888;2022-10-31T04:48:27;3.07;;;1.90;;
7707;SDS011;3896;48.758;8.888;2022-10-31T04:50:58;3.00;;;2.20;;
7707;SDS011;3896;48.758;8.888;2022-10-31T04:53:24;2.23;;;2.03;;
7707;SDS011;3896;48.758;8.888;2022-10-31T04:55:49;3.87;;;2.27;;
7707;SDS011;3896;48.758;8.888;2022-10-31T04:58:15;3.63;;;2.30;;
7707;SDS011;3896;48.758;8.888;2022-10-31T05:00:41;3.13;;;2.30;;
7707;SDS011;3896;48.758;8.888;2022-10-31T05:03:06;2.87;;;2.33;;
7707;SDS011;3896;48.758;8.888;2022-10-31T05:05:32;3.97;;;2.33;;
7707;SDS011;3896;48.758;8.888;2022-10-31T05:07:57;2.40;;;2.20;;
7707;SDS011;3896;48.758;8.888;2022-10-31T05:10:24;3.93;;;2.33;;
7707;SDS011;3896;48.758;8.888;2022-10-31T05:12:51;3.60;;;2.90;;
7707;SDS011;3896;48.758;8.888;2022-10-31T05:15:22;3.63;;;2.93;;
7707;SDS011;3896;48.758;8.888;2022-10-31T05:17:48;3.57;;;2.23;;
7707;SDS011;3896;48.758;8.888;2022-10-31T05:20:15;4.90;;;2.10;;
7707;SDS011;3896;48.758;8.888;2022-10-31T05:22:42;2.20;;;2.00;;
7707;SDS011;3896;48.758;8.888;2022-10-31T05:25:12;6.07;;;2.33;;
7707;SDS011;3896;48.758;8.888;2022-10-31T05:27:39;3.93;;;2.23;;
7707;SDS011;3896;48.758;8.888;2022-10-31T05:30:05;2.80;;;2.17;;
7707;SDS011;3896;48.758;8.888;2022-10-31T05:32:41;2.27;;;1.90;;
7707;SDS011;3896;48.758;8.888;2022-10-31T05:35:11;2.90;;;2.37;;
7707;SDS011;3896;48.758;8.888;2022-10-31T05:37:38;1.97;;;1.87;;
7707;SDS011;3896;48.758;8.888;2022-10-31T05:40:04;4.63;;;2.00;;
7707;SDS011;3896;48.758;8.888;2022-10-31T05:42:31;2.80;;;2.00;;
7707;SDS011;3896;48.758;8.888;2022-10-31T05:44:57;2.27;;;2.07;;
7707;SDS011;3896;48.758;8.888;2022-10-31T05:47:23;4.40;;;2.17;;
7707;SDS011;3896;48.758;8.888;2022-10-31T05:49:49;2.33;;;1.80;;
7707;SDS011;3896;48.758;8.888;2022-10-31T05:52:15;3.90;;;2.03;;
7707;SDS011;3896;48.758;8.888;2022-10-31T05:54:40;4.83;;;2.20;;
7707;SDS011;3896;48.758;8.888;2022-10-31T05:57:06;2.50;;;1.90;;
7707;SDS011;3896;48.758;8.888;2022-10-31T05:59:31;4.50;;;2.30;;
7707;SDS011;3896;48.758;8.888;2022-10-31T06:01:57;3.53;;;2.60;;
7707;SDS011;3896;48.758;8.888;2022-10-31T06:04:23;3.67;;;2.47;;
7707;SDS011;3896;48.758;8.888;2022-10-31T06:06:48;4.13;;;2.50;;
7707;SDS011;3896;48.758;8.888;2022-10-31T06:09:14;4.80;;;2.40;;
7707;SDS011;3896;48.758;8.888;2022-10-31T06:11:39;2.50;;;1.63;;
7707;SDS011;3896;48.758;8.888;2022-10-31T06:14:05;2.93;;;2.70;;
7707;SDS011;3896;48.758;8.888;2022-10-31T06:16:31;4.03;;;1.90;;
7707;SDS011;3896;48.758;8.888;2022-10-31T06:18:56;4.17;;;2.30;;
7707;SDS011;3896;48.758;8.888;2022-10-31T06:21:22;3.87;;;2.00;;
7707;SDS011;3896;48.758;8.888;2022-10-31T06:23:49;6.00;;;3.00;;
7707;SDS011;3896;48.758;8.888;2022-10-31T06:26:14;9.33;;;2.27;;
7707;SDS011;3896;48.758;8.888;2022-10-31T06:28:40;4.20;;;2.63;;
7707;SDS011;3896;48.758;8.888;2022-10-31T06:31:05;5.17;;;2.87;;
7707;SDS011;3896;48.758;8.888;2022-10-31T06:33:31;3.97;;;2.50;;
7707;SDS011;3896;48.758;8.888;2022-10-31T06:35:57;4.43;;;2.40;;
7707;SDS011;3896;48.758;8.888;2022-10-31T06:38:23;3.00;;;2.40;;
7707;SDS011;3896;48.758;8.888;2022-10-31T06:40:50;2.80;;;1.93;;
7707;SDS011;3896;48.758;8.888;2022-10-31T06:43:15;9.90;;;2.87;;
7707;SDS011;3896;48.758;8.888;2022-10-31T06:45:41;5.33;;;2.57;;
7707;SDS011;3896;48.758;8.888;2022-10-31T06:48:06;4.20;;;2.23;;
7707;SDS011;3896;48.758;8.888;2022-10-31T06:50:32;4.47;;;2.47;;
7707;SDS011;3896;48.758;8.888;2022-10-31T06:52:58;3.63;;;2.30;;
7707;SDS011;3896;48.758;8.888;2022-10-31T06:55:24;7.17;;;2.57;;
7707;SDS011;3896;48.758;8.888;2022-10-31T06:57:54;3.17;;;2.77;;
7707;SDS011;3896;48.758;8.888;2022-10-31T07:00:21;4.63;;;2.80;;
7707;SDS011;3896;48.758;8.888;2022-10-31T07:02:57;4.40;;;3.73;;
7707;SDS011;3896;48.758;8.888;2022-10-31T07:05:31;5.87;;;3.57;;
7707;SDS011;3896;48.758;8.888;2022-10-31T07:07:58;4.30;;;3.33;;
7707;SDS011;3896;48.758;8.888;2022-10-31T07:10:26;4.97;;;3.03;;
7707;SDS011;3896;48.758;8.888;2022-10-31T07:12:56;6.93;;;4.73;;
7707;SDS011;3896;48.758;8.888;2022-10-31T07:15:22;5.47;;;4.97;;
7707;SDS011;3896;48.758;8.888;2022-10-31T07:17:49;6.70;;;4.37;;
7707;SDS011;3896;48.758;8.888;2022-10-31T07:20:14;4.70;;;4.30;;
7707;SDS011;3896;48.758;8.888;2022-10-31T07:22:40;4.90;;;3.80;;
7707;SDS011;3896;48.758;8.888;2022-10-31T07:25:06;4.50;;;3.53;;
7707;SDS011;3896;48.758;8.888;2022-10-31T07:27:38;9.13;;;3.83;;
7707;SDS011;3896;48.758;8.888;2022-10-31T07:30:06;7.40;;;3.43;;
7707;SDS011;3896;48.758;8.888;2022-10-31T07:32:39;6.57;;;3.87;;
7707;SDS011;3896;48.758;8.888;2022-10-31T07:35:09;9.27;;;3.50;;
7707;SDS011;3896;48.758;8.888;2022-10-31T07:37:36;5.50;;;3.83;;
7707;SDS011;3896;48.758;8.888;2022-10-31T07:40:03;6.07;;;3.30;;
7707;SDS011;3896;48.758;8.888;2022-10-31T07:42:34;6.00;;;3.83;;
7707;SDS011;3896;48.758;8.888;2022-10-31T07:45:04;6.10;;;4.07;;
7707;SDS011;3896;48.758;8.888;2022-10-31T07:47:37;7.37;;;3.57;;
7707;SDS011;3896;48.758;8.888;2022-10-31T07:50:04;6.20;;;4.00;;
7707;SDS011;3896;48.758;8.888;2022-10-31T07:52:30;10.80;;;6.37;;
7707;SDS011;3896;48.758;8.888;2022-10-31T07:54:55;14.00;;;7.13;;
7707;SDS011;3896;48.758;8.888;2022-10-31T07:57:20;15.47;;;7.73;;
7707;SDS011;3896;48.758;8.888;2022-10-31T07:59:46;15.10;;;8.00;;
7707;SDS011;3896;48.758;8.888;2022-10-31T08:02:12;14.80;;;6.73;;
7707;SDS011;3896;48.758;8.888;2022-10-31T08:04:37;6.17;;;4.40;;
7707;SDS011;3896;48.758;8.888;2022-10-31T08:07:03;7.13;;;3.97;;
7707;SDS011;3896;48.758;8.888;2022-10-31T08:09:28;5.20;;;3.97;;
7707;SDS011;3896;48.758;8.888;2022-10-31T08:11:54;10.20;;;4.00;;
7707;SDS011;3896;48.758;8.888;2022-10-31T08:14:19;8.17;;;4.57;;
7707;SDS011;3896;48.758;8.888;2022-10-31T08:16:45;7.40;;;4.03;;
7707;SDS011;3896;48.758;8.888;2022-10-31T08:19:13;9.23;;;5.50;;
7707;SDS011;3896;48.758;8.888;2022-10-31T08:21:39;6.33;;;4.17;;
7707;SDS011;3896;48.758;8.888;2022-10-31T08:24:04;6.60;;;4.00;;
7707;SDS011;3896;48.758;8.888;2022-10-31T08:26:30;6.33;;;4.10;;
7707;SDS011;3896;48.758;8.888;2022-10-31T08:28:56;8.07;;;4.33;;
7707;SDS011;3896;48.758;8.888;2022-10-31T08:31:21;10.13;;;4.47;;
7707;SDS011;3896;48.758;8.888;2022-10-31T08:33:47;9.93;;;6.30;;
7707;SDS011;3896;48.758;8.888;2022-10-31T08:36:13;7.33;;;5.67;;
7707;SDS011;3896;48.758;8.888;2022-10-31T08:38:39;11.80;;;5.87;;
7707;SDS011;3896;48.758;8.888;2022-10-31T08:41:04;9.17;;;5.57;;
7707;SDS011;3896;48.758;8.888;2022-10-31T08:43:30;7.40;;;4.50;;
7707;SDS011;3896;48.758;8.888;2022-10-31T08:45:55;9.37;;;5.17;;
7707;SDS011;3896;48.758;8.888;2022-10-31T08:48:21;7.57;;;4.30;;
7707;SDS011;3896;48.758;8.888;2022-10-31T08:50:47;7.33;;;4.63;;
7707;SDS011;3896;48.758;8.888;2022-10-31T08:53:14;9.60;;;4.30;;
7707;SDS011;3896;48.758;8.888;2022-10-31T08:55:42;7.27;;;3.93;;
7707;SDS011;3896;48.758;8.888;2022-10-31T08:58:12;7.53;;;4.77;;
7707;SDS011;3896;48.758;8.888;2022-10-31T09:00:39;7.53;;;4.93;;
7707;SDS011;3896;48.758;8.888;2022-10-31T09:03:06;8.93;;;4.53;;
7707;SDS011;3896;48.758;8.888;2022-10-31T09:05:34;6.23;;;4.37;;
7707;SDS011;3896;48.758;8.888;2022-10-31T09:08:01;7.00;;;5.03;;
7707;SDS011;3896;48.758;8.888;2022-10-31T09:10:28;5.40;;;4.03;;
7707;SDS011;3896;48.758;8.888;2022-10-31T09:13:01;12.30;;;6.67;;
7707;SDS011;3896;48.758;8.888;2022-10-31T09:15:34;14.43;;;6.50;;
7707;SDS011;3896;48.758;8.888;2022-10-31T09:18:01;6.50;;;4.97;;
7707;SDS011;3896;48.758;8.888;2022-10-31T09:20:27;8.57;;;3.73;;
7707;SDS011;3896;48.758;8.888;2022-10-31T09:22:57;8.83;;;5.27;;
7707;SDS011;3896;48.758;8.888;2022-10-31T09:25:23;10.77;;;4.63;;
7707;SDS011;3896;48.758;8.888;2022-10-31T09:27:49;7.77;;;3.20;;
7707;SDS011;3896;48.758;8.888;2022-10-31T09:30:15;8.27;;;4.87;;
7707;SDS011;3896;48.758;8.888;2022-10-31T09:32:40;15.17;;;5.70;;
7707;SDS011;3896;48.758;8.888;2022-10-31T09:35:06;9.53;;;4.40;;
7707;SDS011;3896;48.758;8.888;2022-10-31T09:37:32;7.83;;;4.40;;
7707;SDS011;3896;48.758;8.888;2022-10-31T09:39:58;9.07;;;4.37;;
7707;SDS011;3896;48.758;8.888;2022-10-31T09:45:11;6.67;;;3.63;;
7707;SDS011;3896;48.758;8.888;2022-10-31T09:50:24;5.57;;;4.17;;
7707;SDS011;3896;48.758;8.888;2022-10-31T09:52:57;5.87;;;3.47;;
7707;SDS011;3896;48.758;8.888;2022-10-31T09:55:53;6.80;;;3.97;;
7707;SDS011;3896;48.758;8.888;2022-10-31T09:58:20;6.83;;;4.43;;
7707;SDS011;3896;48.758;8.888;2022-10-31T10:00:49;7.80;;;4.83;;
7707;SDS011;3896;48.758;8.888;2022-10-31T10:06:16;7.63;;;4.30;;
7707;SDS011;3896;48.758;8.888;2022-10-31T10:08:48;9.83;;;4.73;;
7707;SDS011;3896;48.758;8.888;2022-10-31T10:19:30;6.73;;;3.23;;
7707;SDS011;3896;48.758;8.888;2022-10-31T10:22:07;6.63;;;3.23;;
7707;SDS011;3896;48.758;8.888;2022-10-31T10:27:54;5.93;;;4.10;;
7707;SDS011;3896;48.758;8.888;2022-10-31T10:30:38;5.93;;;3.73;;
7707;SDS011;3896;48.758;8.888;2022-10-31T10:33:31;5.50;;;3.23;;
7707;SDS011;3896;48.758;8.888;2022-10-31T10:36:06;7.57;;;4.07;;
7707;SDS011;3896;48.758;8.888;2022-10-31T10:38:51;6.03;;;3.87;;
7707;SDS011;3896;48.758;8.888;2022-10-31T10:41:26;6.90;;;3.67;;
7707;SDS011;3896;48.758;8.888;2022-10-31T10:43:58;5.80;;;4.37;;
7707;SDS011;3896;48.758;8.888;2022-10-31T10:46:37;4.70;;;3.30;;
7707;SDS011;3896;48.758;8.888;2022-10-31T10:49:45;5.93;;;3.43;;
7707;SDS011;3896;48.758;8.888;2022-10-31T10:57:55;6.13;;;3.10;;
7707;SDS011;3896;48.758;8.888;2022-10-31T11:00:26;5.87;;;3.97;;
7707;SDS011;3896;48.758;8.888;2022-10-31T11:02:55;6.33;;;4.10;;
7707;SDS011;3896;48.758;8.888;2022-10-31T11:07:50;5.13;;;2.80;;
7707;SDS011;3896;48.758;8.888;2022-10-31T11:10:16;7.30;;;3.23;;
7707;SDS011;3896;48.758;8.888;2022-10-31T11:12:43;7.43;;;4.07;;
7707;SDS011;3896;48.758;8.888;2022-10-31T11:15:18;5.90;;;3.13;;
7707;SDS011;3896;48.758;8.888;2022-10-31T11:17:48;5.43;;;3.20;;
7707;SDS011;3896;48.758;8.888;2022-10-31T11:22:49;7.37;;;3.30;;
7707;SDS011;3896;48.758;8.888;2022-10-31T11:25:25;3.77;;;2.73;;
7707;SDS011;3896;48.758;8.888;2022-10-31T11:28:09;7.70;;;3.43;;
7707;SDS011;3896;48.758;8.888;2022-10-31T11:30:46;5.03;;;3.20;;
7707;SDS011;3896;48.758;8.888;2022-10-31T11:33:32;5.37;;;3.60;;
7707;SDS011;3896;48.758;8.888;2022-10-31T11:36:23;5.73;;;3.57;;
7707;SDS011;3896;48.758;8.888;2022-10-31T11:38:52;4.90;;;3.07;;
7707;SDS011;3896;48.758;8.888;2022-10-31T11:41:34;6.83;;;3.50;;
7707;SDS011;3896;48.758;8.888;2022-10-31T11:44:15;6.23;;;3.03;;
7707;SDS011;3896;48.758;8.888;2022-10-31T11:47:17;7.23;;;4.13;;
7707;SDS011;3896;48.758;8.888;2022-10-31T11:49:39;4.93;;;3.33;;
7707;SDS011;3896;48.758;8.888;2022-10-31T11:52:08;6.23;;;3.40;;
7707;SDS011;3896;48.758;8.888;2022-10-31T11:57:27;7.43;;;3.60;;
7707;SDS011;3896;48.758;8.888;2022-10-31T11:59:58;11.43;;;3.40;;
7707;SDS011;3896;48.758;8.888;2022-10-31T12:02:26;6.70;;;3.93;;
7707;SDS011;3896;48.758;8.888;2022-10-31T12:05:02;10.80;;;4.07;;
7707;SDS011;3896;48.758;8.888;2022-10-31T12:07:42;7.53;;;3.17;;
7707;SDS011;3896;48.758;8.888;2022-10-31T12:10:12;8.27;;;3.77;;
7707;SDS011;3896;48.758;8.888;2022-10-31T12:12:48;8.43;;;3.70;;
7707;SDS011;3896;48.758;8.888;2022-10-31T12:15:32;12.10;;;4.17;;
7707;SDS011;3896;48.758;8.888;2022-10-31T12:23:41;8.23;;;4.40;;
7707;SDS011;3896;48.758;8.888;2022-10-31T12:34:46;10.87;;;4.90;;
7707;SDS011;3896;48.758;8.888;2022-10-31T12:43:34;8.97;;;3.97;;
7707;SDS011;3896;48.758;8.888;2022-10-31T12:45:52;10.63;;;4.83;;
7707;SDS011;3896;48.758;8.888;2022-10-31T12:59:53;10.70;;;5.50;;
7707;SDS011;3896;48.758;8.888;2022-10-31T13:02:27;7.40;;;4.87;;
7707;SDS011;3896;48.758;8.888;2022-10-31T13:05:05;9.47;;;4.80;;
7707;SDS011;3896;48.758;8.888;2022-10-31T13:13:18;7.03;;;4.17;;
7707;SDS011;3896;48.758;8.888;2022-10-31T13:15:55;12.00;;;4.77;;
7707;SDS011;3896;48.758;8.888;2022-10-31T13:18:27;11.20;;;4.60;;
7707;SDS011;3896;48.758;8.888;2022-10-31T13:21:03;9.40;;;4.20;;
7707;SDS011;3896;48.758;8.888;2022-10-31T13:23:37;9.67;;;4.87;;
7707;SDS011;3896;48.758;8.888;2022-10-31T13:26:15;8.13;;;4.27;;
7707;SDS011;3896;48.758;8.888;2022-10-31T13:28:48;11.73;;;4.00;;
7707;SDS011;3896;48.758;8.888;2022-10-31T13:31:21;5.07;;;3.73;;
7707;SDS011;3896;48.758;8.888;2022-10-31T13:33:55;5.80;;;3.70;;
7707;SDS011;3896;48.758;8.888;2022-10-31T13:36:42;5.60;;;3.30;;
7707;SDS011;3896;48.758;8.888;2022-10-31T13:39:23;7.30;;;4.00;;
7707;SDS011;3896;48.758;8.888;2022-10-31T13:41:55;5.43;;;3.23;;
7707;SDS011;3896;48.758;8.888;2022-10-31T13:44:34;7.53;;;3.77;;
7707;SDS011;3896;48.758;8.888;2022-10-31T13:47:03;6.30;;;3.90;;
7707;SDS011;3896;48.758;8.888;2022-10-31T13:49:47;9.03;;;3.90;;
7707;SDS011;3896;48.758;8.888;2022-10-31T13:52:14;8.83;;;4.20;;
7707;SDS011;3896;48.758;8.888;2022-10-31T13:54:43;8.27;;;3.50;;
7707;SDS011;3896;48.758;8.888;2022-10-31T13:57:22;9.33;;;3.87;;
7707;SDS011;3896;48.758;8.888;2022-10-31T13:59:53;6.10;;;3.53;;
7707;SDS011;3896;48.758;8.888;2022-10-31T14:02:28;15.10;;;3.67;;
7707;SDS011;3896;48.758;8.888;2022-10-31T14:05:03;5.73;;;3.13;;
7707;SDS011;3896;48.758;8.888;2022-10-31T14:07:49;5.87;;;3.70;;
7707;SDS011;3896;48.758;8.888;2022-10-31T14:10:37;13.67;;;4.07;;
7707;SDS011;3896;48.758;8.888;2022-10-31T14:18:25;7.70;;;3.37;;
7707;SDS011;3896;48.758;8.888;2022-10-31T14:20:56;7.60;;;3.33;;
7707;SDS011;3896;48.758;8.888;2022-10-31T14:28:48;6.17;;;3.43;;
7707;SDS011;3896;48.758;8.888;2022-10-31T14:36:39;7.00;;;3.03;;
7707;SDS011;3896;48.758;8.888;2022-10-31T14:40:15;6.43;;;3.43;;
7707;SDS011;3896;48.758;8.888;2022-10-31T14:45:08;5.50;;;3.03;;
7707;SDS011;3896;48.758;8.888;2022-10-31T14:52:35;6.03;;;3.20;;
7707;SDS011;3896;48.758;8.888;2022-10-31T14:55:03;6.13;;;3.07;;
7707;SDS011;3896;48.758;8.888;2022-10-31T14:57:35;7.07;;;3.13;;
7707;SDS011;3896;48.758;8.888;2022-10-31T15:00:04;5.47;;;2.97;;
7707;SDS011;3896;48.758;8.888;2022-10-31T15:03:19;12.57;;;3.47;;
7707;SDS011;3896;48.758;8.888;2022-10-31T15:05:18;8.67;;;3.13;;
7707;SDS011;3896;48.758;8.888;2022-10-31T15:07:55;9.73;;;3.40;;
7707;SDS011;3896;48.758;8.888;2022-10-31T15:10:23;7.47;;;3.20;;
7707;SDS011;3896;48.758;8.888;2022-10-31T15:12:55;9.87;;;3.50;;
7707;SDS011;3896;48.758;8.888;2022-10-31T15:15:22;11.90;;;3.33;;
7707;SDS011;3896;48.758;8.888;2022-10-31T15:17:57;7.97;;;3.07;;
7707;SDS011;3896;48.758;8.888;2022-10-31T15:20:32;18.83;;;4.30;;
7707;SDS011;3896;48.758;8.888;2022-10-31T15:23:03;13.10;;;4.03;;
7707;SDS011;3896;48.758;8.888;2022-10-31T15:25:30;12.47;;;3.27;;
7707;SDS011;3896;48.758;8.888;2022-10-31T15:27:59;5.23;;;3.63;;
7707;SDS011;3896;48.758;8.888;2022-10-31T15:30:25;8.93;;;3.57;;
7707;SDS011;3896;48.758;8.888;2022-10-31T15:32:53;3.97;;;3.00;;
7707;SDS011;3896;48.758;8.888;2022-10-31T15:35:20;6.97;;;3.67;;
7707;SDS011;3896;48.758;8.888;2022-10-31T15:37:54;11.10;;;4.17;;
7707;SDS011;3896;48.758;8.888;2022-10-31T15:40:22;8.73;;;3.27;;
7707;SDS011;3896;48.758;8.888;2022-10-31T15:43:02;8.87;;;3.17;;
7707;SDS011;3896;48.758;8.888;2022-10-31T15:45:30;15.13;;;4.13;;
7707;SDS011;3896;48.758;8.888;2022-10-31T15:47:57;9.43;;;3.27;;
7707;SDS011;3896;48.758;8.888;2022-10-31T15:50:35;4.20;;;2.77;;
7707;SDS011;3896;48.758;8.888;2022-10-31T15:53:17;8.13;;;3.60;;
7707;SDS011;3896;48.758;8.888;2022-10-31T15:56:04;7.57;;;3.23;;
7707;SDS011;3896;48.758;8.888;2022-10-31T16:00:34;9.43;;;3.30;;
7707;SDS011;3896;48.758;8.888;2022-10-31T16:03:03;7.30;;;3.17;;
7707;SDS011;3896;48.758;8.888;2022-10-31T16:10:53;13.77;;;4.80;;
7707;SDS011;3896;48.758;8.888;2022-10-31T16:13:27;8.57;;;3.60;;
7707;SDS011;3896;48.758;8.888;2022-10-31T16:16:00;6.77;;;3.23;;
7707;SDS011;3896;48.758;8.888;2022-10-31T16:18:28;8.43;;;3.90;;
7707;SDS011;3896;48.758;8.888;2022-10-31T16:20:59;5.57;;;3.13;;
7707;SDS011;3896;48.758;8.888;2022-10-31T16:23:25;5.57;;;3.40;;
7707;SDS011;3896;48.758;8.888;2022-10-31T16:25:52;4.67;;;3.30;;
7707;SDS011;3896;48.758;8.888;2022-10-31T16:28:19;10.40;;;4.03;;
7707;SDS011;3896;48.758;8.888;2022-10-31T16:30:56;4.93;;;3.33;;
7707;SDS011;3896;48.758;8.888;2022-10-31T16:33:31;5.57;;;3.50;;
7707;SDS011;3896;48.758;8.888;2022-10-31T16:36:13;9.30;;;4.10;;
7707;SDS011;3896;48.758;8.888;2022-10-31T16:38:56;17.73;;;5.37;;
7707;SDS011;3896;48.758;8.888;2022-10-31T16:41:23;7.77;;;4.47;;
7707;SDS011;3896;48.758;8.888;2022-10-31T16:43:49;7.67;;;4.23;;
7707;SDS011;3896;48.758;8.888;2022-10-31T16:46:15;8.50;;;4.03;;
7707;SDS011;3896;48.758;8.888;2022-10-31T16:48:46;10.20;;;4.47;;
7707;SDS011;3896;48.758;8.888;2022-10-31T16:51:12;10.47;;;3.63;;
7707;SDS011;3896;48.758;8.888;2022-10-31T16:53:38;9.13;;;4.60;;
7707;SDS011;3896;48.758;8.888;2022-10-31T16:56:03;11.60;;;6.07;;
7707;SDS011;3896;48.758;8.888;2022-10-31T16:58:30;6.13;;;3.80;;
7707;SDS011;3896;48.758;8.888;2022-10-31T17:00:58;13.43;;;4.53;;
7707;SDS011;3896;48.758;8.888;2022-10-31T17:03:24;10.60;;;4.10;;
7707;SDS011;3896;48.758;8.888;2022-10-31T17:05:51;9.90;;;4.87;;
7707;SDS011;3896;48.758;8.888;2022-10-31T17:08:16;12.23;;;5.03;;
7707;SDS011;3896;48.758;8.888;2022-10-31T17:10:43;9.97;;;5.00;;
7707;SDS011;3896;48.758;8.888;2022-10-31T17:13:12;10.13;;;4.40;;
7707;SDS011;3896;48.758;8.888;2022-10-31T17:15:44;11.20;;;4.20;;
7707;SDS011;3896;48.758;8.888;2022-10-31T17:18:15;10.60;;;3.83;;
7707;SDS011;3896;48.758;8.888;2022-10-31T17:20:42;7.27;;;4.20;;
7707;SDS011;3896;48.758;8.888;2022-10-31T17:23:09;6.70;;;4.00;;
7707;SDS011;3896;48.758;8.888;2022-10-31T17:25:39;13.03;;;4.70;;
7707;SDS011;3896;48.758;8.888;2022-10-31T17:28:05;7.50;;;3.97;;
7707;SDS011;3896;48.758;8.888;2022-10-31T17:30:31;5.43;;;4.00;;
7707;SDS011;3896;48.758;8.888;2022-10-31T17:32:58;9.00;;;4.37;;
7707;SDS011;3896;48.758;8.888;2022-10-31T17:35:24;5.50;;;3.97;;
7707;SDS011;3896;48.758;8.888;2022-10-31T17:37:50;10.03;;;4.60;;
7707;SDS011;3896;48.758;8.888;2022-10-31T17:40:17;9.17;;;5.03;;
7707;SDS011;3896;48.758;8.888;2022-10-31T17:43:02;7.23;;;4.00;;
7707;SDS011;3896;48.758;8.888;2022-10-31T17:45:28;5.90;;;4.13;;
7707;SDS011;3896;48.758;8.888;2022-10-31T17:47:53;5.60;;;3.67;;
7707;SDS011;3896;48.758;8.888;2022-10-31T17:50:20;5.77;;;4.27;;